Terminal Aerodrome Forecast
Issued by NWS

Home | Current Version | Previous Version | Text Only | Print | Product List | Glossary Off
Versions: 1 2 3 4 5 6 7 8 9 10 11 12 13 14 15 16 17

000
FTUS41 KCLE 202328
TAFFDY
TAF
KFDY 202328Z 2100/2124 17004KT P6SM SCT035 BKN100
      TEMPO 2100/2102 4SM SHRA OVC035
     FM210300 VRB03KT P6SM BKN150
     FM210900 VRB03KT 4SM BR BKN250
     FM211300 21006KT P6SM VCSH BKN070
     FM211700 23008KT P6SM BKN120=

USA.gov is the U.S. government's official web portal to all federal, state and local government web resources and services.